Time;durP1;ratioP1;P1;durP2;ratioP2;P2;SDS_P1;SDS_P2;PMS_P1;PMS_P2;Temp;Humidity;BMP_temperature;BMP_pressure;BME280_temperature;BME280_humidity;BME280_pressure;Samples;Min_cycle;Max_cycle;Signal;HPM_P1;HPM_P2
2022/10/09 00:00:30;;;;;;;;;;;;;;;-142.75;100.00;78220.22;5062745;28;19938;-68
2022/10/09 00:02:56;;;;;;;;;;;;;;;-142.75;100.00;78220.22;5061786;28;19917;-68
2022/10/09 00:05:22;;;;;;;;;;;;;;;-142.75;100.00;78220.22;5062045;28;19919;-68
2022/10/09 00:07:47;;;;;;;;;;;;;;;-142.75;100.00;78216.28;5062379;28;19959;-68
2022/10/09 00:10:13;;;;;;;;;;;;;;;-142.75;100.00;78212.34;5063320;28;19967;-69
2022/10/09 00:12:38;;;;;;;;;;;;;;;-142.75;100.00;78216.28;5063518;28;19914;-68
2022/10/09 00:15:03;;;;;;;;;;;;;;;-142.75;100.00;78218.25;5063548;28;19924;-68
2022/10/09 00:17:29;;;;;;;;;;;;;;;-142.75;100.00;78220.22;5072520;28;19912;-68
2022/10/09 00:19:54;;;;;;;;;;;;;;;-142.75;100.00;78220.22;5072888;28;19948;-68
2022/10/09 00:22:19;;;;;;;;;;;;;;;-142.75;100.00;78220.22;5072524;28;19912;-68
2022/10/09 00:24:44;;;;;;;;;;;;;;;-142.75;100.00;78234.00;5072393;28;19913;-68
2022/10/09 00:27:09;;;;;;;;;;;;;;;-142.75;100.00;78226.13;5072415;28;19912;-68
2022/10/09 00:29:34;;;;;;;;;;;;;;;-142.75;100.00;78253.69;5072746;28;19923;-68
2022/10/09 00:32:00;;;;;;;;;;;;;;;-142.75;100.00;78257.63;5072450;28;19939;-68
2022/10/09 00:34:25;;;;;;;;;;;;;;;-142.75;100.00;78267.47;5071477;28;19912;-68
2022/10/09 00:36:50;;;;;;;;;;;;;;;-142.75;100.00;78275.34;5070998;28;19912;-68
2022/10/09 00:39:15;;;;;;;;;;;;;;;-142.75;100.00;78289.13;5072562;28;19920;-68
2022/10/09 00:41:40;;;;;;;;;;;;;;;-142.75;100.00;78318.69;5072358;28;19912;-68
2022/10/09 00:44:24;;;;;;;;;;;;;;;-142.75;100.00;78316.72;5071177;28;20297;-68
2022/10/09 00:46:51;;;;;;;;;;;;;;;-142.75;100.00;78324.59;5072125;28;19916;-68
2022/10/09 00:49:24;;;;;;;;;;;;;;;-142.75;100.00;78322.63;5071093;28;19912;-68
2022/10/09 00:51:50;;;;;;;;;;;;;;;-142.75;100.00;78330.50;5072381;28;19937;-68
2022/10/09 00:54:17;;;;;;;;;;;;;;;-142.75;100.00;78322.63;5072379;28;19919;-68
2022/10/09 00:56:42;;;;;;;;;;;;;;;-142.75;100.00;78338.38;5070722;28;19913;-68
2022/10/09 00:59:08;;;;;;;;;;;;;;;-142.75;100.00;78371.84;5072188;28;19922;-68
2022/10/09 01:01:33;;;;;;;;;;;;;;;-142.75;100.00;78362.00;5072210;28;19913;-68
2022/10/09 01:03:58;;;;;;;;;;;;;;;-142.75;100.00;78350.19;5072215;28;19912;-68
2022/10/09 01:06:35;;;;;;;;;;;;;;;-142.75;100.00;78346.25;5072111;28;19913;-68
2022/10/09 01:09:01;;;;;;;;;;;;;;;-142.75;100.00;78346.25;5072318;28;19912;-68
2022/10/09 01:11:34;;;;;;;;;;;;;;;-142.75;100.00;78354.13;5071955;28;19920;-68
2022/10/09 01:14:04;;;;;;;;;;;;;;;-142.75;100.00;78354.13;5070932;28;20340;-68
2022/10/09 01:16:33;;;;;;;;;;;;;;;-142.75;100.00;78358.06;5072103;28;20007;-68
2022/10/09 01:19:03;;;;;;;;;;;;;;;-142.75;100.00;78365.94;5072035;28;19956;-68
2022/10/09 01:21:36;;;;;;;;;;;;;;;-142.75;100.00;78362.00;5072037;28;19999;-68
2022/10/09 01:24:10;;;;;;;;;;;;;;;-142.75;100.00;78379.72;5072074;28;19920;-68
2022/10/09 01:26:41;;;;;;;;;;;;;;;-142.75;100.00;78362.00;5071684;28;20003;-68
2022/10/09 01:29:08;;;;;;;;;;;;;;;-142.75;100.00;78362.00;5071822;28;19932;-68
2022/10/09 01:31:36;;;;;;;;;;;;;;;-142.75;100.00;78369.88;5073378;28;19950;-68
2022/10/09 01:34:02;;;;;;;;;;;;;;;-142.75;100.00;78367.91;5073087;28;19919;-67
2022/10/09 01:36:29;;;;;;;;;;;;;;;-142.75;100.00;78362.00;5072983;28;19913;-68
2022/10/09 01:38:58;;;;;;;;;;;;;;;-142.75;100.00;78354.13;5076614;28;19916;-68
2022/10/09 01:41:24;;;;;;;;;;;;;;;-142.75;100.00;78344.28;5075402;28;20058;-68
2022/10/09 01:43:49;;;;;;;;;;;;;;;-142.75;100.00;78330.50;5075934;28;20007;-68
2022/10/09 01:46:26;;;;;;;;;;;;;;;-142.75;100.00;78326.56;5075854;28;19913;-68
2022/10/09 01:48:55;;;;;;;;;;;;;;;-142.75;100.00;78328.53;5075653;28;20385;-68
2022/10/09 01:51:22;;;;;;;;;;;;;;;-142.75;100.00;78344.28;5075569;28;19916;-68
2022/10/09 01:53:50;;;;;;;;;;;;;;;-142.75;100.00;78365.94;5075948;28;19935;-68
2022/10/09 01:56:19;;;;;;;;;;;;;;;-142.75;100.00;78350.19;5074226;28;19920;-68
2022/10/09 01:58:53;;;;;;;;;;;;;;;-142.75;100.00;78340.34;5075552;28;19912;-68
2022/10/09 02:01:25;;;;;;;;;;;;;;;-142.75;100.00;78334.44;5075562;28;20404;-68
2022/10/09 02:03:52;;;;;;;;;;;;;;;-142.75;100.00;78334.44;5075714;28;19919;-69
2022/10/09 02:06:17;;;;;;;;;;;;;;;-142.75;100.00;78322.63;5074217;28;19943;-68
2022/10/09 02:08:44;;;;;;;;;;;;;;;-142.75;100.00;78326.56;5075126;28;19912;-68
2022/10/09 02:11:11;;;;;;;;;;;;;;;-142.75;100.00;78314.75;5075126;28;19939;-69
2022/10/09 02:13:36;;;;;;;;;;;;;;;-142.75;100.00;78306.88;5075392;28;19912;-68
2022/10/09 02:16:05;;;;;;;;;;;;;;;-142.75;100.00;78314.75;5075260;28;19920;-68
2022/10/09 02:18:34;;;;;;;;;;;;;;;-142.75;100.00;78318.69;5075002;28;20017;-68
2022/10/09 02:21:04;;;;;;;;;;;;;;;-142.75;100.00;78320.66;5075201;28;20000;-68
2022/10/09 02:23:30;;;;;;;;;;;;;;;-142.75;100.00;78322.63;5075302;28;19920;-68
2022/10/09 02:25:56;;;;;;;;;;;;;;;-142.75;100.00;78328.53;5075254;28;19912;-68
2022/10/09 02:28:21;;;;;;;;;;;;;;;-142.75;100.00;78338.38;5074735;28;19913;-68
2022/10/09 02:30:52;;;;;;;;;;;;;;;-142.75;100.00;78338.38;5074674;28;19960;-68
2022/10/09 02:33:24;;;;;;;;;;;;;;;-142.75;100.00;78326.56;5073719;28;19920;-68
2022/10/09 02:35:50;;;;;;;;;;;;;;;-142.75;100.00;78330.50;5075053;28;20011;-68
2022/10/09 02:38:15;;;;;;;;;;;;;;;-142.75;100.00;78342.31;5074562;28;20343;-68
2022/10/09 02:40:40;;;;;;;;;;;;;;;-142.75;100.00;78334.44;5074880;28;19948;-68
2022/10/09 02:43:05;;;;;;;;;;;;;;;-142.75;100.00;78334.44;5074645;28;19921;-67
2022/10/09 02:45:30;;;;;;;;;;;;;;;-142.75;100.00;78340.34;5074861;28;19912;-68
2022/10/09 02:47:55;;;;;;;;;;;;;;;-142.75;100.00;78334.44;5074007;28;20282;-68
2022/10/09 02:50:21;;;;;;;;;;;;;;;-142.75;100.00;78336.41;5074617;28;19970;-68
2022/10/09 02:52:46;;;;;;;;;;;;;;;-142.75;100.00;78326.56;5074558;28;19964;-68
2022/10/09 02:55:11;;;;;;;;;;;;;;;-142.75;100.00;78322.63;5073308;28;19934;-68
2022/10/09 02:57:36;;;;;;;;;;;;;;;-142.75;100.00;78338.38;5074258;28;19954;-68
2022/10/09 03:00:02;;;;;;;;;;;;;;;-142.75;100.00;78346.25;5074510;28;20006;-68
2022/10/09 03:02:27;;;;;;;;;;;;;;;-142.75;100.00;78362.00;5074386;28;19913;-68
2022/10/09 03:04:52;;;;;;;;;;;;;;;-142.75;100.00;78354.13;5074593;28;20007;-68
2022/10/09 03:07:18;;;;;;;;;;;;;;;-142.75;100.00;78385.63;5074151;28;19913;-68
2022/10/09 03:09:43;;;;;;;;;;;;;;;-142.75;100.00;78401.38;5074211;28;20370;-68
2022/10/09 03:12:08;;;;;;;;;;;;;;;-142.75;100.00;78403.38;5074318;28;19917;-68
2022/10/09 03:14:34;;;;;;;;;;;;;;;-142.75;100.00;78417.16;5074696;28;19919;-68
2022/10/09 03:16:59;;;;;;;;;;;;;;;-142.75;100.00;78413.22;5073930;28;19917;-68
2022/10/09 03:19:24;;;;;;;;;;;;;;;-142.75;100.00;78440.78;5074160;28;19939;-68
2022/10/09 03:21:49;;;;;;;;;;;;;;;-142.75;100.00;78450.63;5072661;28;19919;-68
2022/10/09 03:24:14;;;;;;;;;;;;;;;-142.75;100.00;78452.59;5073973;28;20398;-68
2022/10/09 03:26:40;;;;;;;;;;;;;;;-142.75;100.00;78460.47;5073886;28;20301;-68
2022/10/09 03:29:05;;;;;;;;;;;;;;;-142.75;100.00;78448.66;5074259;28;19935;-68
2022/10/09 03:31:30;;;;;;;;;;;;;;;-142.75;100.00;78474.25;5087590;22;19925;-68
2022/10/09 03:33:55;;;;;;;;;;;;;;;-142.75;100.00;78464.41;5072422;28;20382;-68
2022/10/09 03:36:21;;;;;;;;;;;;;;;-142.75;100.00;78474.25;5054587;28;19966;-68
2022/10/09 03:38:46;;;;;;;;;;;;;;;-142.75;100.00;78462.44;5073238;28;19966;-67
2022/10/09 03:41:11;;;;;;;;;;;;;;;-142.75;100.00;78468.34;5055558;28;19916;-68
2022/10/09 03:43:36;;;;;;;;;;;;;;;-142.75;100.00;78456.53;5073423;28;19961;-68
2022/10/09 03:46:08;;;;;;;;;;;;;;;-142.75;100.00;78458.50;5073433;28;19966;-67
2022/10/09 03:48:33;;;;;;;;;;;;;;;-142.75;100.00;78460.47;5055245;28;20015;-68
2022/10/09 03:50:58;;;;;;;;;;;;;;;-142.75;100.00;78462.44;5055260;28;20358;-67
2022/10/09 03:53:24;;;;;;;;;;;;;;;-142.75;100.00;78464.41;5073276;28;19916;-67
2022/10/09 03:55:49;;;;;;;;;;;;;;;-142.75;100.00;78462.44;5073223;28;20278;-68
2022/10/09 03:58:14;;;;;;;;;;;;;;;-142.75;100.00;78464.41;5072865;28;19912;-68
2022/10/09 04:00:39;;;;;;;;;;;;;;;-142.75;100.00;78464.41;5054424;28;19924;-68
2022/10/09 04:03:05;;;;;;;;;;;;;;;-142.75;100.00;78464.41;5072972;28;20005;-68
2022/10/09 04:05:33;;;;;;;;;;;;;;;-142.75;100.00;78480.16;5072491;28;20305;-68
2022/10/09 04:07:58;;;;;;;;;;;;;;;-142.75;100.00;78486.06;5054529;28;19913;-69
2022/10/09 04:10:24;;;;;;;;;;;;;;;-142.75;100.00;78501.84;5072864;28;20440;-68
2022/10/09 04:12:49;;;;;;;;;;;;;;;-142.75;100.00;78511.69;5072743;28;19912;-68
2022/10/09 04:15:14;;;;;;;;;;;;;;;-142.75;100.00;78519.56;5072899;28;19912;-68
2022/10/09 04:17:39;;;;;;;;;;;;;;;-142.75;100.00;78515.63;5054583;28;20389;-67
2022/10/09 04:20:05;;;;;;;;;;;;;;;-142.75;100.00;78515.63;5072846;28;20003;-68
2022/10/09 04:22:30;;;;;;;;;;;;;;;-142.75;100.00;78515.63;5072606;28;19919;-67
2022/10/09 04:24:55;;;;;;;;;;;;;;;-142.75;100.00;78507.75;5072716;28;20444;-67
2022/10/09 04:27:20;;;;;;;;;;;;;;;-142.75;100.00;78523.50;5072262;28;19942;-68
2022/10/09 04:29:45;;;;;;;;;;;;;;;-142.75;100.00;78515.63;5072532;28;19924;-67
2022/10/09 04:32:11;;;;;;;;;;;;;;;-142.75;100.00;78515.63;5072397;28;19920;-69
2022/10/09 04:34:36;;;;;;;;;;;;;;;-142.75;100.00;78515.63;5072565;28;19912;-68
2022/10/09 04:37:01;;;;;;;;;;;;;;;-142.75;100.00;78509.72;5072212;28;19920;-67
2022/10/09 04:39:26;;;;;;;;;;;;;;;-142.75;100.00;78511.69;5072475;28;19920;-68
2022/10/09 04:41:52;;;;;;;;;;;;;;;-142.75;100.00;78513.66;5054300;28;19912;-68
2022/10/09 04:44:17;;;;;;;;;;;;;;;-142.75;100.00;78490.00;5072463;28;19916;-68
2022/10/09 04:46:42;;;;;;;;;;;;;;;-142.75;100.00;78511.69;5072269;28;19913;-68
2022/10/09 04:49:11;;;;;;;;;;;;;;;-142.75;100.00;78497.91;5072554;28;19912;-68
2022/10/09 04:51:37;;;;;;;;;;;;;;;-142.75;100.00;78523.50;5054213;28;20440;-68
2022/10/09 04:54:02;;;;;;;;;;;;;;;-142.75;100.00;78507.75;5072254;28;19912;-68
2022/10/09 04:56:27;;;;;;;;;;;;;;;-142.75;100.00;78515.63;5072138;28;19916;-66
2022/10/09 04:58:52;;;;;;;;;;;;;;;-142.75;100.00;78505.78;5072105;28;20012;-68
2022/10/09 05:01:19;;;;;;;;;;;;;;;-142.75;100.00;78515.63;5054245;28;19912;-68
2022/10/09 05:03:44;;;;;;;;;;;;;;;-142.75;100.00;78511.69;5072159;28;20377;-69
2022/10/09 05:06:10;;;;;;;;;;;;;;;-142.75;100.00;78517.59;5054176;28;19918;-68
2022/10/09 05:08:36;;;;;;;;;;;;;;;-142.75;100.00;78519.56;5071870;28;19912;-68
2022/10/09 05:11:03;;;;;;;;;;;;;;;-142.75;100.00;78519.56;5071758;28;20382;-68
2022/10/09 05:13:29;;;;;;;;;;;;;;;-142.75;100.00;78511.69;5072065;28;19912;-68
2022/10/09 05:15:54;;;;;;;;;;;;;;;-142.75;100.00;78511.69;5072094;28;20294;-68
2022/10/09 05:18:19;;;;;;;;;;;;;;;-142.75;100.00;78515.63;5053720;28;19919;-67
2022/10/09 05:20:45;;;;;;;;;;;;;;;-142.75;100.00;78505.78;5072029;28;19918;-68
2022/10/09 05:23:10;;;;;;;;;;;;;;;-142.75;100.00;78529.41;5071891;28;19913;-68
2022/10/09 05:25:35;;;;;;;;;;;;;;;-142.75;100.00;78515.63;5071963;28;19912;-67
2022/10/09 05:28:01;;;;;;;;;;;;;;;-142.75;100.00;78507.75;5071657;28;19969;-68
2022/10/09 05:30:26;;;;;;;;;;;;;;;-142.75;100.00;78511.69;5053914;28;19923;-68
2022/10/09 05:32:51;;;;;;;;;;;;;;;-142.75;100.00;78505.78;5053787;28;19916;-68
2022/10/09 05:35:17;;;;;;;;;;;;;;;-142.75;100.00;78503.81;5071850;28;19934;-68
2022/10/09 05:37:45;;;;;;;;;;;;;;;-142.75;100.00;78509.72;5053643;28;19912;-68
2022/10/09 05:40:10;;;;;;;;;;;;;;;-142.75;100.00;78491.97;5071755;28;20382;-68
2022/10/09 05:42:35;;;;;;;;;;;;;;;-142.75;100.00;78480.16;5071766;28;19919;-68
2022/10/09 05:45:00;;;;;;;;;;;;;;;-142.75;100.00;78484.09;5071863;28;19948;-68
2022/10/09 05:47:28;;;;;;;;;;;;;;;-142.75;100.00;78484.09;5053533;28;20441;-68
2022/10/09 05:49:53;;;;;;;;;;;;;;;-142.75;100.00;78488.03;5071655;28;20297;-68
2022/10/09 05:52:18;;;;;;;;;;;;;;;-142.75;100.00;78488.03;5071670;28;19919;-68
2022/10/09 05:54:44;;;;;;;;;;;;;;;-142.75;100.00;78484.09;5071626;28;19912;-68
2022/10/09 05:57:09;;;;;;;;;;;;;;;-142.75;100.00;78493.97;5071365;28;20649;-68
2022/10/09 05:59:34;;;;;;;;;;;;;;;-142.75;100.00;78490.00;5071688;28;19920;-68
2022/10/09 06:01:59;;;;;;;;;;;;;;;-142.75;100.00;78490.00;5071654;28;20467;-68
2022/10/09 06:04:25;;;;;;;;;;;;;;;-142.75;100.00;78495.94;5071561;28;20294;-67
2022/10/09 06:06:50;;;;;;;;;;;;;;;-142.75;100.00;78493.97;5071278;28;20336;-68
2022/10/09 06:09:23;;;;;;;;;;;;;;;-142.75;100.00;78484.09;5071554;28;19913;-68
2022/10/09 06:11:49;;;;;;;;;;;;;;;-142.75;100.00;78493.97;5071456;28;20011;-68
2022/10/09 06:14:15;;;;;;;;;;;;;;;-142.75;100.00;78472.28;5071586;28;19919;-68
2022/10/09 06:16:41;;;;;;;;;;;;;;;-142.75;100.00;78458.50;5071192;28;20429;-68
2022/10/09 06:19:07;;;;;;;;;;;;;;;-142.75;100.00;78458.50;5071454;28;19912;-68
2022/10/09 06:21:32;;;;;;;;;;;;;;;-142.75;100.00;78450.63;5071370;28;19982;-68
2022/10/09 06:23:58;;;;;;;;;;;;;;;-142.75;100.00;78454.56;5073873;28;19912;-68
2022/10/09 06:26:24;;;;;;;;;;;;;;;-142.75;100.00;78442.75;5056957;28;19917;-66
2022/10/09 06:28:50;;;;;;;;;;;;;;;-142.75;100.00;78430.94;5074765;28;19999;-68
2022/10/09 06:31:16;;;;;;;;;;;;;;;-142.75;100.00;78405.34;5068382;28;19921;-68
2022/10/09 06:33:42;;;;;;;;;;;;;;;-142.75;100.00;78397.44;5046352;28;20426;-68
2022/10/09 06:36:09;;;;;;;;;;;;;;;-142.75;100.00;78389.56;5065327;28;19913;-68
2022/10/09 06:38:35;;;;;;;;;;;;;;;-142.75;100.00;78377.75;5063082;28;20409;-68
2022/10/09 06:41:01;;;;;;;;;;;;;;;-142.75;100.00;78369.88;5064281;28;19913;-68
2022/10/09 06:43:26;;;;;;;;;;;;;;;-142.75;100.00;78362.00;5065030;28;20290;-68
2022/10/09 06:45:52;;;;;;;;;;;;;;;-142.75;100.00;78332.47;5063058;28;19920;-68
2022/10/09 06:48:17;;;;;;;;;;;;;;;-142.75;100.00;78314.75;5064357;28;20009;-68
2022/10/09 06:50:42;;;;;;;;;;;;;;;-142.75;100.00;78332.47;5064119;28;19916;-68
2022/10/09 06:53:07;;;;;;;;;;;;;;;-142.75;100.00;78291.09;5063013;28;19913;-68
2022/10/09 06:55:32;;;;;;;;;;;;;;;-142.75;100.00;78275.34;5053007;28;19961;-68
2022/10/09 06:57:58;;;;;;;;;;;;;;;-142.75;100.00;78249.75;5072762;28;20393;-68
2022/10/09 07:00:23;;;;;;;;;;;;;;;-142.75;100.00;78226.13;5073135;28;19924;-68
2022/10/09 07:02:49;;;;;;;;;;;;;;;-142.75;100.00;78220.22;5073689;28;19919;-68
2022/10/09 07:05:14;;;;;;;;;;;;;;;-142.75;100.00;78192.66;5053737;28;19917;-68
2022/10/09 07:07:40;;;;;;;;;;;;;;;-142.75;100.00;78172.94;5067631;28;19964;-69
2022/10/09 07:10:05;;;;;;;;;;;;;;;-142.75;100.00;78143.41;5045759;28;19970;-68
2022/10/09 07:12:32;;;;;;;;;;;;;;;-142.75;100.00;78129.63;5062655;28;19936;-68
2022/10/09 07:14:57;;;;;;;;;;;;;;;-142.75;100.00;78088.28;5064267;28;20302;-68
2022/10/09 07:17:23;;;;;;;;;;;;;;;-142.75;100.00;78086.31;5070727;28;19912;-68
2022/10/09 07:19:48;;;;;;;;;;;;;;;-142.75;100.00;78058.72;5056064;28;19919;-68
2022/10/09 07:22:13;;;;;;;;;;;;;;;-142.75;100.00;78031.16;5055910;28;20033;-68
2022/10/09 07:24:38;;;;;;;;;;;;;;;-142.75;100.00;77989.81;5073958;28;19912;-68
2022/10/09 07:27:03;;;;;;;;;;;;;;;-142.75;100.00;78001.63;5073579;28;19912;-68
2022/10/09 07:29:29;;;;;;;;;;;;;;;-142.75;100.00;77979.97;5073782;28;19919;-69
2022/10/09 07:31:54;;;;;;;;;;;;;;;-142.75;100.00;77968.16;5073594;28;20011;-68
2022/10/09 07:34:19;;;;;;;;;;;;;;;-142.75;100.00;77960.28;5054711;28;20003;-68
2022/10/09 07:36:44;;;;;;;;;;;;;;;-142.75;100.00;77944.53;5073312;28;19919;-68
2022/10/09 07:39:09;;;;;;;;;;;;;;;-142.75;100.00;77930.75;5073572;28;20292;-68
2022/10/09 07:41:35;;;;;;;;;;;;;;;-142.75;100.00;77905.13;5073489;28;19913;-68
2022/10/09 07:44:00;;;;;;;;;;;;;;;-142.75;100.00;77895.28;5055487;28;19948;-69
2022/10/09 07:46:26;;;;;;;;;;;;;;;-142.75;100.00;77883.47;5073692;28;19958;-68
2022/10/09 07:48:51;;;;;;;;;;;;;;;-142.75;100.00;77846.06;5071370;28;19955;-65
2022/10/09 07:51:21;;;;;;;;;;;;;;;-142.75;100.00;77798.81;5073337;28;19956;-66
2022/10/09 07:53:47;;;;;;;;;;;;;;;-142.75;100.00;77765.34;5073218;28;20003;-66
2022/10/09 07:56:32;;;;;;;;;;;;;;;-142.75;100.00;77755.50;5073378;28;20000;-69
2022/10/09 07:58:59;;;;;;;;;;;;;;;-142.75;100.00;77712.16;5072766;28;19920;-69
2022/10/09 08:01:26;;;;;;;;;;;;;;;-142.75;100.00;77694.44;5042911;28;19917;-69
2022/10/09 08:03:52;;;;;;;;;;;;;;;-142.75;100.00;77672.78;5063664;28;20370;-66
2022/10/09 08:06:17;;;;;;;;;;;;;;;-142.75;100.00;77633.41;5043914;28;19912;-69
2022/10/09 08:08:43;;;;;;;;;;;;;;;-142.75;100.00;77596.00;5066402;28;19916;-69
2022/10/09 08:11:15;;;;;;;;;;;;;;;-142.75;100.00;77574.34;5064702;28;19927;-67
2022/10/09 08:13:41;;;;;;;;;;;;;;;-142.75;100.00;77582.22;5056719;28;20023;-68
2022/10/09 08:16:07;;;;;;;;;;;;;;;-142.75;100.00;77531.03;5055836;28;20382;-68
2022/10/09 08:18:32;;;;;;;;;;;;;;;-142.75;100.00;77554.66;5057284;28;19919;-69
2022/10/09 08:20:58;;;;;;;;;;;;;;;-142.75;100.00;77515.28;5055941;28;19921;-68
2022/10/09 08:23:23;;;;;;;;;;;;;;;-142.75;100.00;77495.59;5057671;28;19913;-67
2022/10/09 08:25:49;;;;;;;;;;;;;;;-142.75;100.00;77503.47;5056994;28;20324;-69
2022/10/09 08:28:15;;;;;;;;;;;;;;;-142.75;100.00;77499.53;5055719;28;19913;-68
2022/10/09 08:30:40;;;;;;;;;;;;;;;-142.75;100.00;77519.22;5063575;28;19939;-68
2022/10/09 08:33:05;;;;;;;;;;;;;;;-142.75;100.00;77471.97;5067525;28;20377;-69
2022/10/09 08:35:31;;;;;;;;;;;;;;;-142.75;100.00;77481.81;5063550;28;19912;-69
2022/10/09 08:37:56;;;;;;;;;;;;;;;-142.75;100.00;77452.25;5054312;28;20008;-68
2022/10/09 08:40:27;;;;;;;;;;;;;;;-142.75;100.00;77422.72;5052059;28;20390;-69
2022/10/09 08:42:58;;;;;;;;;;;;;;;-142.75;100.00;77367.59;5053355;28;19913;-68
2022/10/09 08:45:24;;;;;;;;;;;;;;;-142.75;100.00;77389.25;5051499;28;19959;-69
2022/10/09 08:47:51;;;;;;;;;;;;;;;-142.75;100.00;77416.81;5051506;28;19956;-69
2022/10/09 08:50:17;;;;;;;;;;;;;;;-142.75;100.00;77387.28;5069637;28;19923;-69
2022/10/09 08:52:51;;;;;;;;;;;;;;;-142.75;100.00;77377.44;5071860;28;20377;-69
2022/10/09 08:55:16;;;;;;;;;;;;;;;-142.75;100.00;77381.38;5071961;28;20015;-68
2022/10/09 08:57:43;;;;;;;;;;;;;;;-142.75;100.00;77369.56;5071494;28;20385;-69
2022/10/09 09:00:13;;;;;;;;;;;;;;;-142.75;100.00;77367.59;5050383;28;19917;-69
2022/10/09 09:02:48;;;;;;;;;;;;;;;-142.75;100.00;77353.81;5051730;28;19923;-69
2022/10/09 09:05:19;;;;;;;;;;;;;;;-142.75;100.00;77342.00;5052299;28;20365;-68
2022/10/09 09:07:50;;;;;;;;;;;;;;;-142.75;100.00;77314.44;5033566;28;19917;-69
2022/10/09 09:10:15;;;;;;;;;;;;;;;-142.75;100.00;77251.44;5051238;28;19917;-70
2022/10/09 09:13:10;;;;;;;;;;;;;;;-142.75;100.00;77239.63;5051927;28;19970;-68
2022/10/09 09:15:41;;;;;;;;;;;;;;;-142.75;100.00;77229.78;4959185;28;19923;-68
2022/10/09 09:18:12;;;;;;;;;;;;;;;-142.75;100.00;77239.63;5057283;28;20270;-69
2022/10/09 09:20:37;;;;;;;;;;;;;;;-142.75;100.00;77227.81;5051509;28;19956;-70
2022/10/09 09:23:06;;;;;;;;;;;;;;;-142.75;100.00;77239.63;5050792;28;19916;-68
2022/10/09 09:25:34;;;;;;;;;;;;;;;-142.75;100.00;77223.88;5052126;28;19912;-69
2022/10/09 09:28:08;;;;;;;;;;;;;;;-142.75;100.00;77225.84;5051745;28;19916;-70
2022/10/09 09:30:36;;;;;;;;;;;;;;;-142.75;100.00;77216.00;5054428;28;19920;-69
2022/10/09 09:33:10;;;;;;;;;;;;;;;-142.75;100.00;77208.13;5095984;22;19976;-67
2022/10/09 09:35:45;;;;;;;;;;;;;;;-142.75;100.00;77217.97;5090996;28;19916;-66
2022/10/09 09:38:11;;;;;;;;;;;;;;;-142.75;100.00;77158.91;5091847;28;19912;-66
2022/10/09 09:40:36;;;;;;;;;;;;;;;-142.75;100.00;77151.03;5092192;28;19927;-67
2022/10/09 09:43:06;;;;;;;;;;;;;;;-142.75;100.00;77154.97;5088686;28;19948;-66
2022/10/09 09:45:31;;;;;;;;;;;;;;;-142.75;100.00;77180.56;5092023;28;19923;-66
2022/10/09 09:47:58;;;;;;;;;;;;;;;-142.75;100.00;77141.19;5091740;28;19912;-67
2022/10/09 09:50:28;;;;;;;;;;;;;;;-142.75;100.00;77129.38;5091758;28;19917;-67
2022/10/09 09:52:54;;;;;;;;;;;;;;;-142.75;100.00;77123.47;5085612;28;19958;-67
2022/10/09 09:55:27;;;;;;;;;;;;;;;-142.75;100.00;77107.72;5081507;28;19920;-67
2022/10/09 09:57:59;;;;;;;;;;;;;;;-142.75;100.00;77046.69;5082958;28;19942;-67
2022/10/09 10:00:24;;;;;;;;;;;;;;;-142.75;100.00;77027.00;5085674;28;19912;-67
2022/10/09 10:03:00;;;;;;;;;;;;;;;-142.75;100.00;77030.94;5083883;28;20082;-67
2022/10/09 10:05:26;;;;;;;;;;;;;;;-142.75;100.00;77058.50;5093908;28;19937;-67
2022/10/09 10:07:51;;;;;;;;;;;;;;;-142.75;100.00;77076.22;5083210;28;19924;-67
2022/10/09 10:10:20;;;;;;;;;;;;;;;-142.75;100.00;77076.22;5085376;28;19916;-66
2022/10/09 10:12:51;;;;;;;;;;;;;;;-142.75;100.00;77058.50;5085520;28;19927;-66
2022/10/09 10:15:26;;;;;;;;;;;;;;;-142.75;100.00;77034.88;5081977;28;19912;-66
2022/10/09 10:18:00;;;;;;;;;;;;;;;-142.75;100.00;77038.81;5083550;28;19965;-67
2022/10/09 10:20:26;;;;;;;;;;;;;;;-142.75;100.00;77034.88;5084138;28;19964;-67
2022/10/09 10:22:53;;;;;;;;;;;;;;;-142.75;100.00;77050.63;5085741;28;20296;-67
2022/10/09 10:25:19;;;;;;;;;;;;;;;-142.75;100.00;76997.47;5090078;28;20387;-67
2022/10/09 10:27:48;;;;;;;;;;;;;;;-142.75;100.00;76983.69;5087295;28;19965;-66
2022/10/09 10:30:15;;;;;;;;;;;;;;;-142.75;100.00;76967.94;5079509;28;19960;-67
2022/10/09 10:33:06;;;;;;;;;;;;;;;-142.75;100.00;76916.75;5082042;28;19963;-67
2022/10/09 10:35:34;;;;;;;;;;;;;;;-142.75;100.00;76936.44;5085825;28;19975;-67
2022/10/09 10:37:59;;;;;;;;;;;;;;;-142.75;97.65;76922.66;5078886;28;19916;-67
2022/10/09 10:40:36;;;;;;;;;;;;;;;-142.75;96.50;76944.31;5083763;28;19918;-68
2022/10/09 10:43:07;;;;;;;;;;;;;;;-142.75;95.42;76956.13;5094874;28;19916;-67
2022/10/09 10:45:34;;;;;;;;;;;;;;;-142.75;94.40;76928.56;5091680;28;20395;-67
2022/10/09 10:48:01;;;;;;;;;;;;;;;-142.75;92.42;76891.16;5094524;28;19924;-67
2022/10/09 10:50:29;;;;;;;;;;;;;;;-142.75;90.53;76946.28;5094734;28;20390;-67
2022/10/09 10:53:13;;;;;;;;;;;;;;;-142.75;92.90;76902.97;5082579;28;19926;-67
2022/10/09 10:55:44;;;;;;;;;;;;;;;-142.75;89.53;76948.25;5077472;28;19916;-67
2022/10/09 10:58:24;;;;;;;;;;;;;;;-142.75;87.10;76857.69;5083222;28;19923;-67
2022/10/09 11:00:57;;;;;;;;;;;;;;;-142.75;88.01;76838.00;5082993;28;20421;-67
2022/10/09 11:03:41;;;;;;;;;;;;;;;-142.75;83.90;76812.41;5081140;28;19912;-67
2022/10/09 11:06:11;;;;;;;;;;;;;;;-142.75;87.68;76786.84;5084914;28;20378;-67
2022/10/09 11:08:42;;;;;;;;;;;;;;;-142.75;85.20;76759.28;5084080;28;19966;-67
2022/10/09 11:11:11;;;;;;;;;;;;;;;-142.75;81.49;76735.66;5084506;28;20332;-67
2022/10/09 11:14:02;;;;;;;;;;;;;;;-142.75;81.64;76822.25;5084057;28;19912;-67
2022/10/09 11:16:27;;;;;;;;;;;;;;;-142.75;85.62;76782.91;5084353;28;19912;-67
2022/10/09 11:18:59;;;;;;;;;;;;;;;-142.75;83.72;76834.06;5083839;28;20519;-67
2022/10/09 11:21:42;;;;;;;;;;;;;;;-142.75;83.15;76804.53;5081376;28;19912;-67
2022/10/09 11:24:11;;;;;;;;;;;;;;;-142.75;84.62;76769.13;5084949;28;20436;-67
2022/10/09 11:26:41;;;;;;;;;;;;;;;-142.75;84.89;76753.38;5093767;28;20397;-67
2022/10/09 11:29:18;;;;;;;;;;;;;;;-142.75;80.96;76747.47;5094136;28;19998;-67
2022/10/09 11:31:50;;;;;;;;;;;;;;;-142.75;79.51;76794.69;5093743;28;19916;-65
2022/10/09 11:34:20;;;;;;;;;;;;;;;-142.75;78.65;76794.69;5093994;28;19912;-65
2022/10/09 11:36:45;;;;;;;;;;;;;;;-142.75;78.26;76806.50;5093521;28;19995;-65
2022/10/09 11:39:16;;;;;;;;;;;;;;;-142.75;78.06;76786.84;5092562;28;20681;-65
2022/10/09 11:41:45;;;;;;;;;;;;;;;-142.75;80.60;76749.44;5093757;28;20309;-67
2022/10/09 11:44:19;;;;;;;;;;;;;;;-142.75;79.08;76767.16;5090941;28;19912;-67
2022/10/09 11:46:53;;;;;;;;;;;;;;;-142.75;78.14;76737.63;5073130;28;19919;-66
2022/10/09 11:49:22;;;;;;;;;;;;;;;-142.75;77.21;76737.63;5073382;28;20008;-66
2022/10/09 11:52:05;;;;;;;;;;;;;;;-142.75;76.92;76767.16;5073219;28;19927;-66
2022/10/09 11:54:31;;;;;;;;;;;;;;;-142.75;80.93;76735.66;5073276;28;19913;-66
2022/10/09 11:56:58;;;;;;;;;;;;;;;-142.75;78.35;76719.91;5072987;28;19919;-67
2022/10/09 11:59:28;;;;;;;;;;;;;;;-142.75;75.73;76727.78;5074210;28;19955;-67
2022/10/09 12:01:53;;;;;;;;;;;;;;;-142.75;77.90;76739.59;5080392;28;19923;-67
2022/10/09 12:04:19;;;;;;;;;;;;;;;-142.75;76.54;76739.59;5080877;28;19920;-67
2022/10/09 12:06:49;;;;;;;;;;;;;;;-142.75;76.30;76745.50;5080451;28;19924;-67
2022/10/09 12:09:20;;;;;;;;;;;;;;;-142.75;75.23;76739.59;5079943;28;19938;-67
2022/10/09 12:12:00;;;;;;;;;;;;;;;-142.75;75.76;76735.66;5077781;28;20526;-67
2022/10/09 12:14:27;;;;;;;;;;;;;;;-142.75;76.37;76708.09;5072731;28;19916;-68
2022/10/09 12:16:53;;;;;;;;;;;;;;;-142.75;74.99;76702.19;5066595;28;20332;-67
2022/10/09 12:19:23;;;;;;;;;;;;;;;-142.75;77.32;76731.72;5069122;28;19916;-67